Data for 08/07/2017

Time Sea-Level Adjusted Pressure Absolute Pressure Temperature Relative Humidity Dew Point   
(mb) (inHg) (mb) (inHg) (C) (F) (%) (C) (F)
00:05 1024 30.24 853 25.19 15.3 59.5 49 4.8 40.6
00:10 1024 30.24 853 25.19 15.1 59.3 49 4.7 40.4
00:15 1024 30.24 853 25.19 15.2 59.4 49 4.8 40.6
00:20 1024 30.24 853 25.19 15.1 59.1 50 4.7 40.5
00:25 1024 30.24 853 25.19 15.1 59.1 49 4.7 40.4
00:30 1024 30.24 853 25.19 15 59.1 50 4.8 40.6
00:35 1024 30.24 853 25.19 15 59 50 4.7 40.5
00:40 1024 30.24 853 25.19 15 59 50 4.8 40.6
00:45 1024 30.24 853 25.19 14.9 58.9 50 4.7 40.5
00:50 1024 30.24 853 25.19 14.9 58.9 50 4.8 40.6
00:55 1024 30.24 853 25.19 14.9 58.8 50 4.7 40.5
01:00 1024 30.24 853 25.19 14.8 58.7 50 4.7 40.4
01:05 1024 30.24 853 25.19 14.8 58.7 51 4.8 40.7
01:10 1024 30.24 853 25.19 14.6 58.3 51 4.8 40.6
01:15 1024 30.24 853 25.19 14.5 58.1 52 4.8 40.6
01:20 1024 30.24 853 25.19 14.4 57.9 52 4.7 40.5
01:25 1024 30.24 853 25.19 14.4 57.9 52 4.7 40.5
01:30 1024 30.24 853 25.19 14.4 58 52 4.8 40.6
01:35 1024 30.24 853 25.19 14.3 57.8 52 4.8 40.6
01:40 1024 30.24 853 25.19 14.3 57.7 53 4.8 40.7
01:45 1024 30.24 853 25.19 14.1 57.4 53 4.8 40.6
01:50 1024 30.24 853 25.19 14 57.2 53 4.8 40.6
01:55 1024 30.24 853 25.19 14 57.2 53 4.8 40.6
02:00 1024 30.24 853 25.19 13.9 57.1 54 4.8 40.6
02:05 1024 30.24 853 25.19 14 57.1 54 4.8 40.6
02:10 1024 30.24 853 25.19 13.8 56.9 54 4.8 40.6
02:15 1024 30.24 853 25.19 13.8 56.8 54 4.7 40.5
02:20 1024 30.24 853 25.19 13.7 56.6 55 4.8 40.6
02:25 1024 30.24 853 25.19 13.6 56.5 55 4.7 40.5
02:30 1024 30.24 853 25.19 13.6 56.4 55 4.7 40.5
02:35 1024 30.24 853 25.19 13.5 56.2 56 4.8 40.7
02:40 1024 30.24 853 25.19 13.2 55.8 56 4.8 40.7
02:45 1024 30.24 853 25.19 13 55.4 57 4.8 40.7
02:50 1024 30.24 853 25.19 12.7 54.9 58 4.7 40.4
02:55 1024 30.24 853 25.19 12.6 54.6 58 4.7 40.4
03:00 1024 30.24 853 25.19 12.5 54.6 58 4.6 40.4
03:05 1024 30.24 853 25.19 12.6 54.6 58 4.7 40.4
03:10 1024 30.24 853 25.19 12.7 54.8 58 4.7 40.5
03:15 1024 30.24 853 25.19 12.8 55 58 4.7 40.5
03:20 1024 30.24 853 25.19 12.6 54.8 58 4.7 40.5
03:25 1024 30.24 853 25.19 12.6 54.7 58 4.7 40.5
03:30 1024 30.24 853 25.19 12.6 54.6 59 4.7 40.5
03:35 1024 30.24 853 25.19 12.6 54.6 58 4.7 40.4
03:40 1024 30.24 853 25.19 12.6 54.7 59 4.8 40.6
03:45 1024 30.24 853 25.19 12.5 54.5 59 4.8 40.6
03:50 1024 30.24 853 25.19 12.4 54.4 59 4.7 40.5
03:55 1024 30.24 853 25.19 12.3 54.2 59 4.7 40.4
04:00 1024 30.24 853 25.19 12.1 53.8 60 4.7 40.4
04:05 1024 30.24 853 25.19 12 53.5 61 4.7 40.4
04:10 1024 30.24 853 25.19 11.9 53.5 61 4.7 40.4
04:15 1024 30.24 853 25.19 11.9 53.4 61 4.7 40.4
04:20 1024 30.24 853 25.19 12 53.6 61 4.7 40.4
04:25 1024 30.24 853 25.19 12.1 53.7 60 4.7 40.4
04:30 1024 30.24 853 25.19 12 53.6 61 4.7 40.5
04:35 1024 30.24 853 25.19 12 53.6 61 4.7 40.5
04:40 1024 30.24 853 25.19 12 53.6 61 4.7 40.4
04:45 1024 30.24 853 25.19 12.1 53.7 61 4.7 40.5
04:50 1024 30.24 853 25.19 12 53.5 61 4.8 40.6
04:55 1024 30.24 853 25.19 12 53.6 61 4.8 40.7
05:00 1024 30.24 853 25.19 12 53.5 62 4.9 40.9
05:05 1024 30.24 853 25.19 11.9 53.4 62 5 40.9
05:10 1024 30.24 853 25.19 11.7 53.1 63 5 41
05:15 1024 30.24 853 25.19 11.6 52.8 63 4.8 40.6
05:20 1024 30.24 853 25.19 11.7 53 63 4.8 40.7
05:25 1024 30.24 853 25.19 11.5 52.7 63 4.6 40.4
05:30 1024 30.24 853 25.19 11.1 51.9 64 4.6 40.3
05:35 1024 30.24 853 25.19 11.1 52 64 4.6 40.2
05:40 1024 30.24 853 25.19 11 51.8 64 4.4 40
05:45 1024 30.24 853 25.19 11 51.8 64 4.5 40
05:50 1024 30.24 853 25.19 11.5 52.6 63 4.6 40.3
05:55 1024 30.24 853 25.19 11.7 53.1 62 4.7 40.5
06:00 1024 30.24 853 25.19 11.9 53.4 61 4.7 40.5
06:05 1024 30.24 853 25.19 12 53.7 61 4.7 40.5
06:10 1024 30.24 853 25.19 12.1 53.8 60 4.7 40.5
06:15 1024 30.24 854 25.22 12.3 54.2 60 4.8 40.6
06:20 1024 30.24 854 25.22 12.5 54.5 59 4.9 40.8
06:25 1024 30.24 854 25.22 12.5 54.6 60 4.9 40.9
06:30 1024 30.24 854 25.22 12.7 54.9 59 4.9 40.8
06:35 1024 30.24 854 25.22 12.9 55.3 58 5 41
06:40 1024 30.24 854 25.22 13.1 55.6 58 5.1 41.3
06:45 1024 30.24 854 25.22 13.3 55.9 58 5.2 41.4
06:50 1024 30.24 854 25.22 13.5 56.3 57 5.2 41.4
06:55 1025 30.27 854 25.22 14 57.3 55 5.1 41.2
07:00 1025 30.27 854 25.22 14.3 57.7 55 5.5 41.9
07:05 1025 30.27 854 25.22 14.3 57.7 54 5.2 41.4
07:10 1025 30.27 854 25.22 14.4 57.9 55 5.4 41.8
07:15 1025 30.27 854 25.22 14.6 58.2 53 5.3 41.5
07:20 1025 30.27 854 25.22 14.6 58.2 53 5.3 41.6
07:25 1025 30.27 854 25.22 14.9 58.7 52 5 41.1
07:30 1025 30.27 854 25.22 15 59.1 51 5.2 41.3
07:35 1025 30.27 854 25.22 15.2 59.4 51 5.3 41.5
07:40 1025 30.27 854 25.22 15.6 60.1 49 5.1 41.2
07:45 1025 30.27 854 25.22 15.7 60.2 48 4.9 40.8
07:50 1024 30.24 854 25.22 16.1 61 48 5.2 41.4
07:55 1024 30.24 854 25.22 16.2 61.1 47 5 41
08:00 1025 30.27 854 25.22 16.1 60.9 47 4.7 40.5
08:05 1024 30.24 854 25.22 16.3 61.3 45 4.4 40
08:10 1024 30.24 854 25.22 16.5 61.7 45 4.8 40.6
08:15 1024 30.24 854 25.22 17 62.5 43 4.4 39.9
08:20 1024 30.24 854 25.22 17.3 63.1 43 4.8 40.6
08:25 1024 30.24 854 25.22 17.4 63.4 42 4.5 40
08:30 1024 30.24 854 25.22 17.7 63.8 42 4.7 40.4
08:35 1024 30.24 854 25.22 17.5 63.6 41 4.2 39.5
08:40 1024 30.24 854 25.22 18.1 64.6 39 4.1 39.4
08:45 1024 30.24 853 25.19 18.4 65.2 39 4.5 40.1
08:50 1024 30.24 853 25.19 18.6 65.4 39 4.5 40.1
08:55 1024 30.24 853 25.19 18.6 65.6 39 4.7 40.5
09:00 1024 30.24 853 25.19 18.8 65.9 38 4.2 39.6
09:05 1024 30.24 853 25.19 18.8 65.9 38 4.5 40.1
09:10 1024 30.24 853 25.19 19.1 66.3 37 4.1 39.3
09:15 1024 30.24 853 25.19 19.1 66.4 37 4.1 39.3
09:20 1024 30.24 853 25.19 19.6 67.3 35 3.9 39
09:25 1024 30.24 853 25.19 20.1 68.1 34 3.9 38.9
09:30 1024 30.24 853 25.19 20.1 68.2 34 4.1 39.3
09:35 1024 30.24 853 25.19 20.5 68.9 36 5 41.1
09:40 1024 30.24 853 25.19 20.4 68.7 33 3.8 38.8
09:45 1024 30.24 853 25.19 20.8 69.5 33 4.2 39.6
09:50 1024 30.24 853 25.19 20.8 69.4 35 4.8 40.6
09:55 1024 30.24 853 25.19 20.5 68.8 35 4.8 40.7
10:00 1024 30.24 853 25.19 20.6 69 33 3.9 39.1
10:05 1024 30.24 853 25.19 21.6 70.8 31 3.9 39.1
10:10 1024 30.24 853 25.19 21.8 71.2 33 4.8 40.7
10:15 1024 30.24 853 25.19 21.3 70.3 31 3.7 38.6
10:20 1024 30.24 853 25.19 21 69.8 33 4.2 39.5
10:25 1024 30.24 853 25.19 21.2 70.2 31 3.7 38.6
10:30 1024 30.24 853 25.19 21.7 71.1 30 3.8 38.8
10:35 1024 30.24 853 25.19 21.7 71.1 29 3.2 37.8
10:40 1024 30.24 853 25.19 21.6 70.9 30 3.6 38.5
10:45 1024 30.24 853 25.19 21.8 71.3 29 3.2 37.7
10:50 1024 30.24 853 25.19 22.3 72.1 29 3.5 38.3
10:55 1024 30.24 853 25.19 23 73.4 25 2 35.6
11:00 1024 30.24 853 25.19 24 75.1 24 2.7 36.8
11:05 1024 30.24 853 25.19 23.7 74.7 25 3 37.4
11:10 1024 30.24 853 25.19 22.7 72.9 23 0.7 33.2
11:15 1024 30.24 853 25.19 22.7 72.8 21 -0.3 31.4
11:20 1024 30.24 853 25.19 23.7 74.6 22 1.2 34.2
11:25 1024 30.24 853 25.19 23.4 74.1 22 1 33.8
11:30 1024 30.24 853 25.19 24.1 75.4 18 -1.2 29.9
11:35 1023 30.21 853 25.19 24.7 76.4 19 -0.1 31.8
11:40 1023 30.21 853 25.19 24.5 76.1 17 -1.7 29
11:45 1023 30.21 853 25.19 24.8 76.7 15 -3 26.6
11:50 1023 30.21 853 25.19 24.9 76.8 17 -1.3 29.6
11:55 1023 30.21 853 25.19 25 76.9 18 -0.5 31
12:00 1023 30.21 853 25.19 25.4 77.7 15 -2.5 27.5
12:05 1023 30.21 852 25.16 24.8 76.6 16 -2.8 26.9
12:10 1023 30.21 852 25.16 25.4 77.7 15 -2.8 26.9
12:15 1023 30.21 852 25.16 25.3 77.6 14 -3.6 25.5
12:20 1023 30.21 852 25.16 24.9 76.9 15 -2.9 26.7
12:25 1023 30.21 852 25.16 24.8 76.7 15 -3.2 26.3
12:30 1023 30.21 852 25.16 25.4 77.7 13 -4.3 24.3
12:35 1023 30.21 852 25.16 25.5 77.9 13 -4.6 23.7
12:40 1023 30.21 852 25.16 25.6 78.2 13 -5 23
12:45 1023 30.21 852 25.16 25.2 77.3 13 -4.8 23.3
12:50 1023 30.21 852 25.16 25.8 78.4 12 -5.4 22.2
12:55 1023 30.21 852 25.16 26.1 78.9 12 -5.8 21.6
13:00 1023 30.21 852 25.16 26.2 79.1 12 -5.2 22.6
13:05 1023 30.21 852 25.16 26 78.9 11 -6.4 20.4
13:10 1023 30.21 852 25.16 24.5 76.1 12 -6.2 20.8
13:15 1023 30.21 852 25.16 25.3 77.6 11 -6.9 19.6
13:20 1023 30.21 852 25.16 25.8 78.5 12 -5.8 21.6
13:25 1023 30.21 852 25.16 26.6 79.8 11 -6.5 20.3
13:30 1023 30.21 852 25.16 26.6 79.8 11 -6.5 20.2
13:35 1023 30.21 852 25.16 26.5 79.7 11 -6.2 20.8
13:40 1023 30.21 852 25.16 26.8 80.2 11 -6.4 20.5
13:45 1023 30.21 852 25.16 26.5 79.7 11 -6.2 20.8
13:50 1023 30.21 852 25.16 26.6 79.8 10 -7 19.4
13:55 1023 30.21 852 25.16 26.9 80.4 12 -4.9 23.2
14:00 1023 30.21 852 25.16 27 80.5 12 -4.7 23.5
14:05 1022 30.18 852 25.16 26.5 79.6 11 -5.9 21.4
14:10 1022 30.18 852 25.16 26.6 79.9 12 -5.4 22.2
14:15 1022 30.18 852 25.16 27 80.6 12 -5 23
14:20 1022 30.18 851 25.13 26.8 80.3 13 -4 24.8
14:25 1022 30.18 851 25.13 26.7 80.1 12 -4.8 23.4
14:30 1022 30.18 851 25.13 26.8 80.2 12 -4.5 24
14:35 1022 30.18 851 25.13 26.5 79.8 12 -5.5 22.1
14:40 1022 30.18 851 25.13 27.5 81.5 11 -5.6 21.9
14:45 1022 30.18 851 25.13 26.8 80.3 12 -4.9 23.2
14:50 1022 30.18 851 25.13 26.9 80.4 11 -6.2 20.8
14:55 1022 30.18 851 25.13 27 80.7 10 -6.5 20.4
15:00 1022 30.18 851 25.13 27.3 81.1 11 -6 21.2
15:05 1022 30.18 851 25.13 27 80.6 9 -8.8 16.2
15:10 1022 30.18 851 25.13 26.9 80.4 9 -8.6 16.6
15:15 1022 30.18 851 25.13 27.4 81.2 9 -8 17.7
15:20 1022 30.18 851 25.13 27.4 81.4 9 -8.4 16.9
15:25 1022 30.18 851 25.13 26.8 80.3 9 -8.8 16.2
15:30 1022 30.18 851 25.13 27.2 80.9 8 -9.1 15.6
15:35 1022 30.18 851 25.13 27.5 81.5 8 -9.1 15.6
15:40 1022 30.18 851 25.13 27 80.6 8 -10.2 13.7
15:45 1022 30.18 851 25.13 26.4 79.6 9 -8.9 16
15:50 1022 30.18 851 25.13 27 80.5 7 -10.8 12.6
15:55 1022 30.18 851 25.13 26.8 80.2 8 -9.3 15.3
16:00 1022 30.18 851 25.13 27 80.7 8 -10.1 13.9
16:05 1022 30.18 851 25.13 27.3 81.2 7 -11.1 12
16:10 1022 30.18 851 25.13 27 80.6 8 -9.4 15.1
16:15 1022 30.18 851 25.13 27.6 81.6 7 -11.5 11.3
16:20 1022 30.18 851 25.13 27.1 80.7 8 -9.7 14.6
16:25 1022 30.18 851 25.13 26.4 79.6 9 -9.2 15.4
16:30 1021 30.15 851 25.13 26.3 79.3 9 -9.5 14.9
16:35 1022 30.18 851 25.13 26.2 79.1 8 -10.2 13.6
16:40 1022 30.18 851 25.13 26.6 79.9 7 -11.6 11.1
16:45 1022 30.18 851 25.13 26.7 80.1 8 -10.9 12.4
16:50 1021 30.15 851 25.13 27.2 80.9 8 -9.2 15.4
16:55 1021 30.15 851 25.13 26.7 80 9 -8.4 16.9
17:00 1021 30.15 851 25.13 26.8 80.2 9 -8.7 16.4
17:05 1021 30.15 850 25.1 26.7 80.1 9 -8.5 16.6
17:10 1021 30.15 850 25.1 26.2 79.2 10 -8 17.7
17:15 1021 30.15 850 25.1 26.2 79.2 9 -8.7 16.3
17:20 1021 30.15 850 25.1 26.8 80.3 9 -8.2 17.2
17:25 1021 30.15 850 25.1 26.8 80.2 9 -8.3 17
17:30 1021 30.15 850 25.1 26.5 79.8 10 -7.5 18.4
17:35 1021 30.15 850 25.1 26.4 79.5 10 -7.9 17.8
17:40 1021 30.15 850 25.1 26.6 80 10 -6.9 19.6
17:45 1021 30.15 850 25.1 26 78.8 11 -6.8 19.7
17:50 1021 30.15 850 25.1 25.7 78.2 12 -5.5 22.1
17:55 1021 30.15 850 25.1 25.8 78.4 10 -7.5 18.5
18:00 1021 30.15 850 25.1 25.4 77.6 11 -7.3 18.9
18:05 1021 30.15 850 25.1 25.4 77.7 11 -7.2 19
18:10 1021 30.15 850 25.1 25.3 77.6 11 -7.3 18.8
18:15 1021 30.15 850 25.1 25 77 11 -7.2 19.1
18:20 1021 30.15 850 25.1 24.9 76.9 13 -5.7 21.8
18:25 1021 30.15 850 25.1 24.8 76.6 13 -5.3 22.5
18:30 1021 30.15 850 25.1 24.8 76.7 12 -6.3 20.6
18:35 1021 30.15 850 25.1 24.8 76.7 13 -5.4 22.3
18:40 1021 30.15 850 25.1 24.7 76.4 12 -6.2 20.9
18:45 1021 30.15 850 25.1 24.3 75.7 13 -5.9 21.4
18:50 1021 30.15 850 25.1 24.1 75.4 13 -6.1 21.1
18:55 1021 30.15 850 25.1 24.2 75.5 14 -4.9 23.1
19:00 1021 30.15 850 25.1 24 75.2 15 -4.1 24.7
19:05 1021 30.15 850 25.1 23.7 74.6 19 -1.2 29.9
19:10 1021 30.15 850 25.1 23.3 73.9 20 -0.6 31
19:15 1021 30.15 850 25.1 23.1 73.5 14 -6.1 21
19:20 1021 30.15 850 25.1 23.2 73.8 18 -2.2 28
19:25 1021 30.15 850 25.1 23.4 74 14 -5.2 22.6
19:30 1021 30.15 850 25.1 23.1 73.6 18 -2 28.5
19:35 1021 30.15 851 25.13 21.9 71.5 23 -0.1 31.7
19:40 1021 30.15 851 25.13 20.9 69.7 22 -1.7 29
19:45 1021 30.15 851 25.13 20.8 69.4 21 -1.9 28.6
19:50 1021 30.15 851 25.13 20.3 68.6 22 -1.7 28.9
19:55 1021 30.15 851 25.13 19.8 67.6 23 -1.7 29
20:00 1021 30.15 851 25.13 19.4 66.8 29 0.9 33.6
20:05 1022 30.18 851 25.13 18.7 65.6 28 0.1 32.1
20:10 1022 30.18 851 25.13 18.5 65.2 23 -3.1 26.5
20:15 1022 30.18 851 25.13 18.8 65.8 22 -3.2 26.3
20:20 1022 30.18 851 25.13 18.8 65.8 22 -3.4 25.8
20:25 1022 30.18 851 25.13 18.7 65.6 21 -3.7 25.3
20:30 1022 30.18 851 25.13 18.8 65.8 22 -3 26.6
20:35 1022 30.18 851 25.13 18.9 65.9 23 -2.7 27.1
20:40 1022 30.18 851 25.13 19.1 66.3 24 -1.9 28.5
20:45 1022 30.18 851 25.13 19.2 66.6 25 -1.3 29.7
20:50 1022 30.18 851 25.13 19.1 66.4 25 -1.1 30
20:55 1022 30.18 851 25.13 19.1 66.4 26 -0.6 30.9
21:00 1022 30.18 851 25.13 18.9 66 27 -0.5 31
21:05 1022 30.18 851 25.13 18.9 66 27 -0.3 31.5
21:10 1022 30.18 851 25.13 18.7 65.7 28 0.1 32.2
21:15 1022 30.18 851 25.13 18.4 65.1 29 0 32
21:20 1022 30.18 851 25.13 18.3 64.9 29 0.1 32.2
21:25 1022 30.18 851 25.13 18 64.3 29 -0.1 31.8
21:30 1022 30.18 851 25.13 17.8 64.1 29 -0.3 31.5
21:35 1022 30.18 851 25.13 17.7 63.9 29 -0.2 31.7
21:40 1022 30.18 851 25.13 17.4 63.2 30 -0 31.9
21:45 1022 30.18 851 25.13 17.2 63 31 0.1 32.1
21:50 1022 30.18 851 25.13 17.1 62.7 32 0.4 32.7
21:55 1022 30.18 851 25.13 16.8 62.3 32 0.4 32.7
22:00 1022 30.18 851 25.13 16.9 62.4 32 0.1 32.1
22:05 1022 30.18 851 25.13 17 62.6 32 0.2 32.3
22:10 1022 30.18 851 25.13 17.1 62.8 31 0.2 32.3
22:15 1022 30.18 851 25.13 17.1 62.7 32 0.3 32.5
22:20 1022 30.18 851 25.13 17.1 62.7 32 0.2 32.3
22:25 1022 30.18 851 25.13 17.3 63.1 31 0.2 32.3
22:30 1022 30.18 851 25.13 17.3 63.2 31 0.2 32.3
22:35 1022 30.18 851 25.13 17.5 63.6 31 0.3 32.5
22:40 1022 30.18 851 25.13 17.4 63.2 32 0.6 33.1
22:45 1022 30.18 851 25.13 17.1 62.7 33 0.6 33.1
22:50 1022 30.18 851 25.13 16.9 62.5 33 0.7 33.3
22:55 1022 30.18 851 25.13 16.9 62.5 34 0.9 33.6
23:00 1022 30.18 851 25.13 16.8 62.3 34 1.2 34.1
23:05 1022 30.18 851 25.13 16.6 61.8 36 1.5 34.7
23:10 1022 30.18 851 25.13 16.3 61.4 36 1.4 34.5
23:15 1022 30.18 851 25.13 16.4 61.6 35 1 33.7
23:20 1022 30.18 851 25.13 16.5 61.7 35 1.1 34
23:25 1022 30.18 851 25.13 16.6 61.9 35 1.3 34.3
23:30 1022 30.18 851 25.13 16.5 61.6 36 1.5 34.7
23:35 1022 30.18 851 25.13 16.4 61.5 36 1.5 34.7
23:40 1022 30.18 851 25.13 16.2 61.2 37 1.6 34.9
23:45 1022 30.18 851 25.13 16.2 61.2 37 1.7 35.1
23:50 1022 30.18 852 25.16 16.2 61.2 37 1.8 35.2
23:55 1022 30.18 852 25.16 16.2 61.1 38 1.9 35.4
24:00 1022 30.18 852 25.16 16.2 61.1 37 1.7 35